CheckWX is a tool to help pilots better visualize weather data.  It is not intended as a substitute for an official pre-flight weather briefing.

13:43:32 UTC

20V METAR
Mc Elroy Airfield Airport
Kremmling, Colorado, USA
Current

32 mins ago

K20V 201312Z AUTO 00000KT 10SM CLR 09/03 A3028 RMK AO2
Observed
Jul-20 @ 13:12 UTC
Visibility
10 SM
Flight Rules
VFR
Cloud Levels
  • Clear skies
Temperature
C / 48°F
Dewpoint
C / 37°F
Humidity
66%
Altimeter
30.28" Hg
Pressure
1025.42 hPa
Previous

56 mins ago

K20V 201248Z AUTO 00000KT 10SM CLR 07/03 A3028 RMK AO2
Observed
Jul-20 @ 12:48 UTC
Visibility
10 SM
Flight Rules
VFR
Cloud Levels
  • Clear skies
Temperature
C / 45°F
Dewpoint
C / 37°F
Humidity
76%
Altimeter
30.28" Hg
Pressure
1025.42 hPa
Previous

1 hour ago

K20V 201230Z AUTO 00000KT 10SM CLR 06/02 A3028 RMK AO2
Observed
Jul-20 @ 12:30 UTC
Visibility
10 SM
Flight Rules
VFR
Cloud Levels
  • Clear skies
Temperature
C / 43°F
Dewpoint
C / 36°F
Humidity
76%
Altimeter
30.28" Hg
Pressure
1025.42 hPa